Baghdad, Iraq
Current Conditions -  °F | °C
As of 3:30 AM on Saturday 22 Nov 2014 (Local Time) from ORBI Reporting Station
Clear Clear  
Wind Chill: 59°   Ceiling: Unl
Heat Index: 59°   Visibility: 6mi
Dew Point: 50°   Wind: 14mph
Humidity: 72%   Direction: 140°SE
Pressure: 29.88"   Gusts: NA
Location:  33.33°N, 44.44°E
Report Text: ORBI 220030Z 14012KT CAVOK 15/10 Q1012
Loading
Personal Weather Stations






























Interactive Weather Map New forecast layout! Learn more

10-Day Weather Forecast

Advertisements
Track Severe Weather on mobile